weather.gov     
National Weather Service

Terminal Aerodrome Forecast
NWS Homepage
This page is being discontinued on March 12, 2014.
The same data is available at this site. Please update your bookmarks.
Thank you, and we apologize for the inconvenience.
Please send an email to SR-SRH.Webmaster@noaa.gov with any concerns.


Current Version
Previous Version:    01  02  03  04  05  06  07  08  09  10  11  12  13  14  15  16  17  18  19  20  21  22  23  24  25  26  27  28  29  30  
   31  32  33  34  35  
[Printable]
633
FTUS42 KILM 210700 AAA
TAFMYR
TAF AMD
KMYR 210751Z 2108/2206 36011KT P6SM SCT015
     FM211400 35011G17KT P6SM SCT040 SCT080
     FM211700 33012KT P6SM FEW040 SCT060
     FM220100 VRB03KT P6SM SKC
      AMD LTD TO CLD VIS AND WIND TIL 211100=


U.S. Dept. of Commerce
NOAA National Weather Service
1325 East West Highway
Silver Spring, MD 20910
E-mail: w-nws.webmaster@noaa.gov
Page last modified: May 16, 2007
NATIONAL WEATHER SERVICE: for Safety, for Work, for Fun - FOR LIFE